sensor_id;sensor_type;location;lat;lon;timestamp;P1;durP1;ratioP1;P2;durP2;ratioP2
22995;SDS011;11664;49.774;8.650;2022-10-15T00:02:16;5.75;;;5.45;;
22995;SDS011;11664;49.774;8.650;2022-10-15T00:04:42;10.60;;;10.10;;
22995;SDS011;11664;49.774;8.650;2022-10-15T00:07:08;14.93;;;14.18;;
22995;SDS011;11664;49.774;8.650;2022-10-15T00:09:34;7.82;;;7.47;;
22995;SDS011;11664;49.774;8.650;2022-10-15T00:12:00;7.03;;;6.68;;
22995;SDS011;11664;49.774;8.650;2022-10-15T00:14:26;5.63;;;5.43;;
22995;SDS011;11664;49.774;8.650;2022-10-15T00:16:52;8.93;;;8.45;;
22995;SDS011;11664;49.774;8.650;2022-10-15T00:19:18;6.28;;;5.97;;
22995;SDS011;11664;49.774;8.650;2022-10-15T00:21:44;8.35;;;7.90;;
22995;SDS011;11664;49.774;8.650;2022-10-15T00:24:10;8.13;;;4.05;;
22995;SDS011;11664;49.774;8.650;2022-10-15T00:26:36;8.10;;;7.70;;
22995;SDS011;11664;49.774;8.650;2022-10-15T00:29:02;9.43;;;9.00;;
22995;SDS011;11664;49.774;8.650;2022-10-15T00:31:29;8.57;;;8.15;;
22995;SDS011;11664;49.774;8.650;2022-10-15T00:33:56;9.88;;;9.43;;
22995;SDS011;11664;49.774;8.650;2022-10-15T00:36:23;7.15;;;6.85;;
22995;SDS011;11664;49.774;8.650;2022-10-15T00:38:50;7.07;;;6.78;;
22995;SDS011;11664;49.774;8.650;2022-10-15T00:41:20;6.35;;;6.03;;
22995;SDS011;11664;49.774;8.650;2022-10-15T00:43:48;6.63;;;6.32;;
22995;SDS011;11664;49.774;8.650;2022-10-15T00:46:16;5.32;;;5.05;;
22995;SDS011;11664;49.774;8.650;2022-10-15T00:48:42;7.07;;;6.68;;
22995;SDS011;11664;49.774;8.650;2022-10-15T00:51:08;7.10;;;6.25;;
22995;SDS011;11664;49.774;8.650;2022-10-15T00:53:34;5.15;;;4.85;;
22995;SDS011;11664;49.774;8.650;2022-10-15T00:56:00;6.90;;;6.50;;
22995;SDS011;11664;49.774;8.650;2022-10-15T00:58:27;4.43;;;4.22;;
22995;SDS011;11664;49.774;8.650;2022-10-15T01:00:56;5.55;;;5.25;;
22995;SDS011;11664;49.774;8.650;2022-10-15T01:03:22;13.95;;;13.20;;
22995;SDS011;11664;49.774;8.650;2022-10-15T01:05:49;7.45;;;7.07;;
22995;SDS011;11664;49.774;8.650;2022-10-15T01:08:16;16.05;;;15.20;;
22995;SDS011;11664;49.774;8.650;2022-10-15T01:11:05;15.43;;;14.63;;
22995;SDS011;11664;49.774;8.650;2022-10-15T01:18:36;6.50;;;6.07;;
22995;SDS011;11664;49.774;8.650;2022-10-15T01:26:28;15.02;;;14.23;;
22995;SDS011;11664;49.774;8.650;2022-10-15T01:34:21;5.82;;;5.50;;
22995;SDS011;11664;49.774;8.650;2022-10-15T01:37:02;5.53;;;5.22;;
22995;SDS011;11664;49.774;8.650;2022-10-15T01:39:34;5.43;;;5.05;;
22995;SDS011;11664;49.774;8.650;2022-10-15T01:42:05;4.90;;;4.65;;
22995;SDS011;11664;49.774;8.650;2022-10-15T01:44:33;6.63;;;6.28;;
22995;SDS011;11664;49.774;8.650;2022-10-15T01:47:02;6.28;;;5.95;;
22995;SDS011;11664;49.774;8.650;2022-10-15T01:49:33;6.55;;;6.20;;
22995;SDS011;11664;49.774;8.650;2022-10-15T01:52:01;10.05;;;9.52;;
22995;SDS011;11664;49.774;8.650;2022-10-15T01:54:27;10.77;;;10.20;;
22995;SDS011;11664;49.774;8.650;2022-10-15T01:56:54;5.60;;;5.30;;
22995;SDS011;11664;49.774;8.650;2022-10-15T01:59:21;4.30;;;4.00;;
22995;SDS011;11664;49.774;8.650;2022-10-15T02:01:48;5.22;;;4.88;;
22995;SDS011;11664;49.774;8.650;2022-10-15T02:04:21;4.18;;;3.88;;
22995;SDS011;11664;49.774;8.650;2022-10-15T02:14:14;7.05;;;5.85;;
22995;SDS011;11664;49.774;8.650;2022-10-15T02:19:50;5.68;;;5.28;;
22995;SDS011;11664;49.774;8.650;2022-10-15T02:22:18;5.38;;;4.95;;
22995;SDS011;11664;49.774;8.650;2022-10-15T02:27:14;13.95;;;13.13;;
22995;SDS011;11664;49.774;8.650;2022-10-15T02:29:41;11.95;;;11.18;;
22995;SDS011;11664;49.774;8.650;2022-10-15T02:32:08;9.55;;;8.93;;
22995;SDS011;11664;49.774;8.650;2022-10-15T02:34:35;10.40;;;9.52;;
22995;SDS011;11664;49.774;8.650;2022-10-15T02:37:02;7.30;;;6.82;;
22995;SDS011;11664;49.774;8.650;2022-10-15T02:39:29;6.10;;;5.70;;
22995;SDS011;11664;49.774;8.650;2022-10-15T02:41:55;6.47;;;5.97;;
22995;SDS011;11664;49.774;8.650;2022-10-15T02:44:21;7.22;;;6.72;;
22995;SDS011;11664;49.774;8.650;2022-10-15T02:46:47;13.43;;;12.32;;
22995;SDS011;11664;49.774;8.650;2022-10-15T02:49:13;12.30;;;11.50;;
22995;SDS011;11664;49.774;8.650;2022-10-15T02:51:39;11.02;;;10.20;;
22995;SDS011;11664;49.774;8.650;2022-10-15T02:54:06;11.98;;;11.15;;
22995;SDS011;11664;49.774;8.650;2022-10-15T02:56:32;14.52;;;13.27;;
22995;SDS011;11664;49.774;8.650;2022-10-15T02:58:58;5.63;;;5.13;;
22995;SDS011;11664;49.774;8.650;2022-10-15T03:01:24;5.38;;;4.97;;
22995;SDS011;11664;49.774;8.650;2022-10-15T03:03:50;8.10;;;7.30;;
22995;SDS011;11664;49.774;8.650;2022-10-15T03:06:16;10.63;;;8.68;;
22995;SDS011;11664;49.774;8.650;2022-10-15T03:08:42;9.55;;;8.75;;
22995;SDS011;11664;49.774;8.650;2022-10-15T03:11:09;11.13;;;10.07;;
22995;SDS011;11664;49.774;8.650;2022-10-15T03:13:36;10.73;;;9.82;;
22995;SDS011;11664;49.774;8.650;2022-10-15T03:16:06;9.80;;;9.00;;
22995;SDS011;11664;49.774;8.650;2022-10-15T03:18:32;11.82;;;10.02;;
22995;SDS011;11664;49.774;8.650;2022-10-15T03:20:58;10.10;;;7.80;;
22995;SDS011;11664;49.774;8.650;2022-10-15T03:23:25;10.55;;;9.63;;
22995;SDS011;11664;49.774;8.650;2022-10-15T03:25:51;8.65;;;7.93;;
22995;SDS011;11664;49.774;8.650;2022-10-15T03:28:18;10.88;;;9.93;;
22995;SDS011;11664;49.774;8.650;2022-10-15T03:30:44;16.38;;;15.23;;
22995;SDS011;11664;49.774;8.650;2022-10-15T03:33:10;18.38;;;17.00;;
22995;SDS011;11664;49.774;8.650;2022-10-15T03:35:37;13.25;;;12.15;;
22995;SDS011;11664;49.774;8.650;2022-10-15T03:38:03;15.25;;;14.13;;
22995;SDS011;11664;49.774;8.650;2022-10-15T03:40:29;14.18;;;13.25;;
22995;SDS011;11664;49.774;8.650;2022-10-15T03:42:55;15.88;;;14.50;;
22995;SDS011;11664;49.774;8.650;2022-10-15T03:45:22;14.48;;;13.40;;
22995;SDS011;11664;49.774;8.650;2022-10-15T03:47:48;16.35;;;15.10;;
22995;SDS011;11664;49.774;8.650;2022-10-15T03:50:14;20.27;;;18.88;;
22995;SDS011;11664;49.774;8.650;2022-10-15T03:52:41;14.13;;;12.98;;
22995;SDS011;11664;49.774;8.650;2022-10-15T03:55:07;15.70;;;14.40;;
22995;SDS011;11664;49.774;8.650;2022-10-15T03:57:33;15.73;;;14.57;;
22995;SDS011;11664;49.774;8.650;2022-10-15T04:00:00;13.50;;;12.40;;
22995;SDS011;11664;49.774;8.650;2022-10-15T04:02:26;13.20;;;12.15;;
22995;SDS011;11664;49.774;8.650;2022-10-15T04:04:52;13.77;;;11.30;;
22995;SDS011;11664;49.774;8.650;2022-10-15T04:07:19;12.20;;;11.10;;
22995;SDS011;11664;49.774;8.650;2022-10-15T04:09:45;11.38;;;10.50;;
22995;SDS011;11664;49.774;8.650;2022-10-15T04:12:11;12.07;;;11.07;;
22995;SDS011;11664;49.774;8.650;2022-10-15T04:14:37;10.50;;;8.65;;
22995;SDS011;11664;49.774;8.650;2022-10-15T04:17:04;12.50;;;11.40;;
22995;SDS011;11664;49.774;8.650;2022-10-15T04:19:30;14.15;;;13.05;;
22995;SDS011;11664;49.774;8.650;2022-10-15T04:21:56;10.43;;;9.38;;
22995;SDS011;11664;49.774;8.650;2022-10-15T04:24:22;10.52;;;9.52;;
22995;SDS011;11664;49.774;8.650;2022-10-15T04:26:48;9.15;;;8.25;;
22995;SDS011;11664;49.774;8.650;2022-10-15T04:29:14;8.95;;;8.20;;
22995;SDS011;11664;49.774;8.650;2022-10-15T04:31:40;14.68;;;10.50;;
22995;SDS011;11664;49.774;8.650;2022-10-15T04:34:06;9.70;;;8.88;;
22995;SDS011;11664;49.774;8.650;2022-10-15T04:36:33;10.00;;;9.18;;
22995;SDS011;11664;49.774;8.650;2022-10-15T04:38:59;8.73;;;8.07;;
22995;SDS011;11664;49.774;8.650;2022-10-15T04:41:25;9.32;;;8.52;;
22995;SDS011;11664;49.774;8.650;2022-10-15T04:43:51;8.68;;;7.95;;
22995;SDS011;11664;49.774;8.650;2022-10-15T04:46:17;7.78;;;7.07;;
22995;SDS011;11664;49.774;8.650;2022-10-15T04:48:46;12.75;;;11.70;;
22995;SDS011;11664;49.774;8.650;2022-10-15T04:51:15;7.95;;;7.22;;
22995;SDS011;11664;49.774;8.650;2022-10-15T04:53:41;11.23;;;10.30;;
22995;SDS011;11664;49.774;8.650;2022-10-15T04:56:09;9.98;;;9.18;;
22995;SDS011;11664;49.774;8.650;2022-10-15T04:58:37;9.57;;;8.75;;
22995;SDS011;11664;49.774;8.650;2022-10-15T05:01:04;6.70;;;6.03;;
22995;SDS011;11664;49.774;8.650;2022-10-15T05:03:31;9.68;;;8.20;;
22995;SDS011;11664;49.774;8.650;2022-10-15T05:06:04;8.52;;;7.72;;
22995;SDS011;11664;49.774;8.650;2022-10-15T05:08:31;8.23;;;7.50;;
22995;SDS011;11664;49.774;8.650;2022-10-15T05:11:01;7.25;;;6.55;;
22995;SDS011;11664;49.774;8.650;2022-10-15T05:13:27;7.28;;;6.65;;
22995;SDS011;11664;49.774;8.650;2022-10-15T05:15:53;8.85;;;8.05;;
22995;SDS011;11664;49.774;8.650;2022-10-15T05:18:19;8.23;;;7.55;;
22995;SDS011;11664;49.774;8.650;2022-10-15T05:20:45;8.43;;;7.68;;
22995;SDS011;11664;49.774;8.650;2022-10-15T05:23:11;8.63;;;7.82;;
22995;SDS011;11664;49.774;8.650;2022-10-15T05:25:37;9.57;;;8.80;;
22995;SDS011;11664;49.774;8.650;2022-10-15T05:28:03;16.98;;;15.60;;
22995;SDS011;11664;49.774;8.650;2022-10-15T05:30:29;12.13;;;9.10;;
22995;SDS011;11664;49.774;8.650;2022-10-15T05:32:55;12.45;;;11.48;;
22995;SDS011;11664;49.774;8.650;2022-10-15T05:35:21;12.05;;;11.27;;
22995;SDS011;11664;49.774;8.650;2022-10-15T05:37:47;15.68;;;14.38;;
22995;SDS011;11664;49.774;8.650;2022-10-15T05:40:13;15.32;;;14.32;;
22995;SDS011;11664;49.774;8.650;2022-10-15T05:42:39;19.92;;;18.70;;
22995;SDS011;11664;49.774;8.650;2022-10-15T05:45:06;17.65;;;16.42;;
22995;SDS011;11664;49.774;8.650;2022-10-15T05:47:32;16.65;;;15.63;;
22995;SDS011;11664;49.774;8.650;2022-10-15T05:49:58;13.70;;;12.73;;
22995;SDS011;11664;49.774;8.650;2022-10-15T05:52:24;10.27;;;9.50;;
22995;SDS011;11664;49.774;8.650;2022-10-15T05:54:50;12.32;;;11.40;;
22995;SDS011;11664;49.774;8.650;2022-10-15T05:57:16;14.73;;;13.80;;
22995;SDS011;11664;49.774;8.650;2022-10-15T05:59:42;17.23;;;16.13;;
22995;SDS011;11664;49.774;8.650;2022-10-15T06:02:08;22.13;;;20.80;;
22995;SDS011;11664;49.774;8.650;2022-10-15T06:04:39;28.42;;;26.85;;
22995;SDS011;11664;49.774;8.650;2022-10-15T06:07:05;24.40;;;23.00;;
22995;SDS011;11664;49.774;8.650;2022-10-15T06:09:31;40.05;;;37.83;;
22995;SDS011;11664;49.774;8.650;2022-10-15T06:11:57;15.32;;;14.20;;
22995;SDS011;11664;49.774;8.650;2022-10-15T06:14:23;13.68;;;12.73;;
22995;SDS011;11664;49.774;8.650;2022-10-15T06:16:49;22.77;;;21.40;;
22995;SDS011;11664;49.774;8.650;2022-10-15T06:19:18;23.17;;;21.75;;
22995;SDS011;11664;49.774;8.650;2022-10-15T06:21:44;19.30;;;17.98;;
22995;SDS011;11664;49.774;8.650;2022-10-15T06:24:10;15.57;;;14.45;;
22995;SDS011;11664;49.774;8.650;2022-10-15T06:26:36;10.13;;;7.47;;
22995;SDS011;11664;49.774;8.650;2022-10-15T06:29:02;9.93;;;9.02;;
22995;SDS011;11664;49.774;8.650;2022-10-15T06:31:28;8.90;;;8.15;;
22995;SDS011;11664;49.774;8.650;2022-10-15T06:33:55;8.32;;;7.53;;
22995;SDS011;11664;49.774;8.650;2022-10-15T06:36:21;9.55;;;8.45;;
22995;SDS011;11664;49.774;8.650;2022-10-15T06:38:48;10.18;;;9.50;;
22995;SDS011;11664;49.774;8.650;2022-10-15T06:41:14;13.80;;;12.88;;
22995;SDS011;11664;49.774;8.650;2022-10-15T06:43:41;23.90;;;22.50;;
22995;SDS011;11664;49.774;8.650;2022-10-15T06:46:07;32.08;;;30.15;;
22995;SDS011;11664;49.774;8.650;2022-10-15T06:48:33;17.33;;;16.27;;
22995;SDS011;11664;49.774;8.650;2022-10-15T06:50:59;25.70;;;24.20;;
22995;SDS011;11664;49.774;8.650;2022-10-15T06:53:26;18.23;;;17.23;;
22995;SDS011;11664;49.774;8.650;2022-10-15T06:55:55;13.55;;;12.57;;
22995;SDS011;11664;49.774;8.650;2022-10-15T06:58:22;16.58;;;15.65;;
22995;SDS011;11664;49.774;8.650;2022-10-15T07:00:48;24.27;;;22.95;;
22995;SDS011;11664;49.774;8.650;2022-10-15T07:03:14;11.25;;;10.68;;
22995;SDS011;11664;49.774;8.650;2022-10-15T07:05:40;15.57;;;14.70;;
22995;SDS011;11664;49.774;8.650;2022-10-15T07:08:06;10.45;;;8.93;;
22995;SDS011;11664;49.774;8.650;2022-10-15T07:10:32;22.25;;;21.15;;
22995;SDS011;11664;49.774;8.650;2022-10-15T07:12:58;9.93;;;9.43;;
22995;SDS011;11664;49.774;8.650;2022-10-15T07:15:25;8.68;;;8.05;;
22995;SDS011;11664;49.774;8.650;2022-10-15T07:17:51;9.70;;;9.10;;
22995;SDS011;11664;49.774;8.650;2022-10-15T07:20:20;23.40;;;22.17;;
22995;SDS011;11664;49.774;8.650;2022-10-15T07:22:47;10.80;;;10.20;;
22995;SDS011;11664;49.774;8.650;2022-10-15T07:25:13;16.42;;;15.55;;
22995;SDS011;11664;49.774;8.650;2022-10-15T07:27:39;15.30;;;14.50;;
22995;SDS011;11664;49.774;8.650;2022-10-15T07:30:06;28.13;;;26.60;;
22995;SDS011;11664;49.774;8.650;2022-10-15T07:32:32;42.28;;;39.92;;
22995;SDS011;11664;49.774;8.650;2022-10-15T07:34:58;38.95;;;36.83;;
22995;SDS011;11664;49.774;8.650;2022-10-15T07:37:24;22.70;;;21.58;;
22995;SDS011;11664;49.774;8.650;2022-10-15T07:39:50;30.20;;;28.20;;
22995;SDS011;11664;49.774;8.650;2022-10-15T07:42:16;11.00;;;10.45;;
22995;SDS011;11664;49.774;8.650;2022-10-15T07:44:42;16.25;;;15.40;;
22995;SDS011;11664;49.774;8.650;2022-10-15T07:47:08;8.20;;;7.80;;
22995;SDS011;11664;49.774;8.650;2022-10-15T07:49:34;22.67;;;21.55;;
22995;SDS011;11664;49.774;8.650;2022-10-15T07:52:00;7.72;;;7.32;;
22995;SDS011;11664;49.774;8.650;2022-10-15T07:54:26;10.63;;;10.13;;
22995;SDS011;11664;49.774;8.650;2022-10-15T07:56:52;11.70;;;11.05;;
22995;SDS011;11664;49.774;8.650;2022-10-15T07:59:18;24.20;;;22.98;;
22995;SDS011;11664;49.774;8.650;2022-10-15T08:01:44;10.05;;;9.50;;
22995;SDS011;11664;49.774;8.650;2022-10-15T08:04:11;8.23;;;7.72;;
22995;SDS011;11664;49.774;8.650;2022-10-15T08:06:37;40.75;;;38.65;;
22995;SDS011;11664;49.774;8.650;2022-10-15T08:09:03;53.08;;;50.35;;
22995;SDS011;11664;49.774;8.650;2022-10-15T08:11:29;33.15;;;31.42;;
22995;SDS011;11664;49.774;8.650;2022-10-15T08:13:55;40.60;;;38.50;;
22995;SDS011;11664;49.774;8.650;2022-10-15T08:16:21;15.68;;;14.77;;
22995;SDS011;11664;49.774;8.650;2022-10-15T08:18:48;12.82;;;12.07;;
22995;SDS011;11664;49.774;8.650;2022-10-15T08:21:14;27.45;;;25.95;;
22995;SDS011;11664;49.774;8.650;2022-10-15T08:23:40;28.50;;;27.02;;
22995;SDS011;11664;49.774;8.650;2022-10-15T08:26:06;53.30;;;50.50;;
22995;SDS011;11664;49.774;8.650;2022-10-15T08:28:32;17.75;;;16.83;;
22995;SDS011;11664;49.774;8.650;2022-10-15T08:30:59;11.57;;;10.98;;
22995;SDS011;11664;49.774;8.650;2022-10-15T08:33:26;7.25;;;6.90;;
22995;SDS011;11664;49.774;8.650;2022-10-15T08:35:53;6.90;;;6.57;;
22995;SDS011;11664;49.774;8.650;2022-10-15T08:38:19;12.93;;;12.32;;
22995;SDS011;11664;49.774;8.650;2022-10-15T08:40:48;14.40;;;13.57;;
22995;SDS011;11664;49.774;8.650;2022-10-15T08:43:25;15.82;;;15.02;;
22995;SDS011;11664;49.774;8.650;2022-10-15T08:45:57;9.52;;;9.02;;
22995;SDS011;11664;49.774;8.650;2022-10-15T08:48:29;12.60;;;12.00;;
22995;SDS011;11664;49.774;8.650;2022-10-15T08:51:05;13.27;;;12.47;;
22995;SDS011;11664;49.774;8.650;2022-10-15T08:53:37;9.63;;;9.13;;
22995;SDS011;11664;49.774;8.650;2022-10-15T08:56:04;7.22;;;6.22;;
22995;SDS011;11664;49.774;8.650;2022-10-15T08:58:44;11.75;;;11.18;;
22995;SDS011;11664;49.774;8.650;2022-10-15T09:01:20;13.80;;;13.15;;
22995;SDS011;11664;49.774;8.650;2022-10-15T09:03:50;10.02;;;9.45;;
22995;SDS011;11664;49.774;8.650;2022-10-15T09:06:25;17.55;;;16.60;;
22995;SDS011;11664;49.774;8.650;2022-10-15T09:08:56;10.93;;;10.02;;
22995;SDS011;11664;49.774;8.650;2022-10-15T09:11:32;7.00;;;6.70;;
22995;SDS011;11664;49.774;8.650;2022-10-15T09:14:00;14.00;;;13.07;;
22995;SDS011;11664;49.774;8.650;2022-10-15T09:16:28;14.90;;;14.20;;
22995;SDS011;11664;49.774;8.650;2022-10-15T09:18:57;11.63;;;10.88;;
22995;SDS011;11664;49.774;8.650;2022-10-15T09:21:25;9.68;;;9.20;;
22995;SDS011;11664;49.774;8.650;2022-10-15T09:23:53;11.60;;;11.02;;
22995;SDS011;11664;49.774;8.650;2022-10-15T09:26:28;20.73;;;19.63;;
22995;SDS011;11664;49.774;8.650;2022-10-15T09:29:02;6.05;;;5.75;;
22995;SDS011;11664;49.774;8.650;2022-10-15T09:31:35;6.75;;;6.45;;
22995;SDS011;11664;49.774;8.650;2022-10-15T09:34:12;6.32;;;5.93;;
22995;SDS011;11664;49.774;8.650;2022-10-15T09:36:49;7.07;;;6.72;;
22995;SDS011;11664;49.774;8.650;2022-10-15T09:44:33;7.88;;;7.13;;
22995;SDS011;11664;49.774;8.650;2022-10-15T09:47:00;5.22;;;5.00;;
22995;SDS011;11664;49.774;8.650;2022-10-15T09:49:26;10.07;;;9.57;;
22995;SDS011;11664;49.774;8.650;2022-10-15T09:52:05;12.43;;;11.68;;
22995;SDS011;11664;49.774;8.650;2022-10-15T09:54:49;7.95;;;7.43;;
22995;SDS011;11664;49.774;8.650;2022-10-15T09:57:16;5.93;;;5.63;;
22995;SDS011;11664;49.774;8.650;2022-10-15T09:59:51;11.27;;;9.18;;
22995;SDS011;11664;49.774;8.650;2022-10-15T10:02:18;7.18;;;6.78;;
22995;SDS011;11664;49.774;8.650;2022-10-15T10:04:44;5.60;;;5.30;;
22995;SDS011;11664;49.774;8.650;2022-10-15T10:07:26;7.32;;;6.93;;
22995;SDS011;11664;49.774;8.650;2022-10-15T10:09:53;8.93;;;8.43;;
22995;SDS011;11664;49.774;8.650;2022-10-15T10:12:35;9.40;;;8.20;;
22995;SDS011;11664;49.774;8.650;2022-10-15T10:15:07;17.77;;;16.83;;
22995;SDS011;11664;49.774;8.650;2022-10-15T10:17:51;21.67;;;20.17;;
22995;SDS011;11664;49.774;8.650;2022-10-15T10:20:18;8.57;;;8.07;;
22995;SDS011;11664;49.774;8.650;2022-10-15T10:25:27;9.27;;;8.75;;
22995;SDS011;11664;49.774;8.650;2022-10-15T10:27:53;36.13;;;34.20;;
22995;SDS011;11664;49.774;8.650;2022-10-15T10:30:20;11.13;;;10.52;;
22995;SDS011;11664;49.774;8.650;2022-10-15T10:32:46;24.00;;;22.77;;
22995;SDS011;11664;49.774;8.650;2022-10-15T10:35:18;12.02;;;9.68;;
22995;SDS011;11664;49.774;8.650;2022-10-15T10:37:46;10.30;;;9.60;;
22995;SDS011;11664;49.774;8.650;2022-10-15T10:40:29;11.15;;;10.55;;
22995;SDS011;11664;49.774;8.650;2022-10-15T10:43:08;8.80;;;8.30;;
22995;SDS011;11664;49.774;8.650;2022-10-15T10:45:34;9.75;;;9.25;;
22995;SDS011;11664;49.774;8.650;2022-10-15T10:48:20;26.40;;;25.05;;
22995;SDS011;11664;49.774;8.650;2022-10-15T10:50:46;35.40;;;21.70;;
22995;SDS011;11664;49.774;8.650;2022-10-15T10:53:19;4.53;;;4.28;;
22995;SDS011;11664;49.774;8.650;2022-10-15T10:55:46;7.35;;;6.95;;
22995;SDS011;11664;49.774;8.650;2022-10-15T10:58:17;10.52;;;10.00;;
22995;SDS011;11664;49.774;8.650;2022-10-15T11:00:45;9.68;;;9.18;;
22995;SDS011;11664;49.774;8.650;2022-10-15T11:06:08;14.88;;;14.10;;
22995;SDS011;11664;49.774;8.650;2022-10-15T11:11:19;6.00;;;5.70;;
22995;SDS011;11664;49.774;8.650;2022-10-15T11:13:53;5.50;;;5.20;;
22995;SDS011;11664;49.774;8.650;2022-10-15T11:16:26;7.43;;;7.07;;
22995;SDS011;11664;49.774;8.650;2022-10-15T11:30:03;7.88;;;6.68;;
22995;SDS011;11664;49.774;8.650;2022-10-15T11:32:20;6.78;;;6.38;;
22995;SDS011;11664;49.774;8.650;2022-10-15T11:35:03;6.53;;;6.13;;
22995;SDS011;11664;49.774;8.650;2022-10-15T11:40:11;5.30;;;4.97;;
22995;SDS011;11664;49.774;8.650;2022-10-15T11:42:41;4.85;;;4.55;;
22995;SDS011;11664;49.774;8.650;2022-10-15T11:47:47;8.10;;;7.70;;
22995;SDS011;11664;49.774;8.650;2022-10-15T11:55:20;5.10;;;4.90;;
22995;SDS011;11664;49.774;8.650;2022-10-15T11:57:48;8.38;;;7.97;;
22995;SDS011;11664;49.774;8.650;2022-10-15T12:02:44;6.65;;;6.30;;
22995;SDS011;11664;49.774;8.650;2022-10-15T12:05:26;6.63;;;6.22;;
22995;SDS011;11664;49.774;8.650;2022-10-15T12:07:54;4.22;;;3.47;;
22995;SDS011;11664;49.774;8.650;2022-10-15T12:15:38;4.40;;;4.20;;
22995;SDS011;11664;49.774;8.650;2022-10-15T12:18:22;5.60;;;5.30;;
22995;SDS011;11664;49.774;8.650;2022-10-15T12:20:50;4.85;;;4.60;;
22995;SDS011;11664;49.774;8.650;2022-10-15T12:23:37;5.80;;;5.43;;
22995;SDS011;11664;49.774;8.650;2022-10-15T12:26:24;4.40;;;4.18;;
22995;SDS011;11664;49.774;8.650;2022-10-15T12:28:51;4.75;;;4.47;;
22995;SDS011;11664;49.774;8.650;2022-10-15T12:31:18;4.07;;;3.78;;
22995;SDS011;11664;49.774;8.650;2022-10-15T12:33:49;4.80;;;4.60;;
22995;SDS011;11664;49.774;8.650;2022-10-15T12:38:55;4.43;;;4.20;;
22995;SDS011;11664;49.774;8.650;2022-10-15T12:41:29;4.00;;;3.80;;
22995;SDS011;11664;49.774;8.650;2022-10-15T12:46:43;5.68;;;5.40;;
22995;SDS011;11664;49.774;8.650;2022-10-15T12:51:52;3.47;;;3.30;;
22995;SDS011;11664;49.774;8.650;2022-10-15T12:54:32;3.63;;;3.42;;
22995;SDS011;11664;49.774;8.650;2022-10-15T12:56:59;3.97;;;3.70;;
22995;SDS011;11664;49.774;8.650;2022-10-15T13:00:18;5.82;;;5.53;;
22995;SDS011;11664;49.774;8.650;2022-10-15T13:02:32;5.22;;;4.93;;
22995;SDS011;11664;49.774;8.650;2022-10-15T13:04:59;5.60;;;5.30;;
22995;SDS011;11664;49.774;8.650;2022-10-15T13:07:25;5.60;;;5.07;;
22995;SDS011;11664;49.774;8.650;2022-10-15T13:09:51;5.68;;;4.68;;
22995;SDS011;11664;49.774;8.650;2022-10-15T13:12:26;5.78;;;5.47;;
22995;SDS011;11664;49.774;8.650;2022-10-15T13:14:56;3.70;;;3.55;;
22995;SDS011;11664;49.774;8.650;2022-10-15T13:17:24;4.13;;;3.92;;
22995;SDS011;11664;49.774;8.650;2022-10-15T13:20:04;4.72;;;4.53;;
22995;SDS011;11664;49.774;8.650;2022-10-15T13:22:32;7.05;;;4.55;;
22995;SDS011;11664;49.774;8.650;2022-10-15T13:24:58;5.25;;;4.78;;
22995;SDS011;11664;49.774;8.650;2022-10-15T13:29:54;7.00;;;6.40;;
22995;SDS011;11664;49.774;8.650;2022-10-15T13:32:20;7.60;;;7.20;;
22995;SDS011;11664;49.774;8.650;2022-10-15T13:34:47;5.07;;;4.75;;
22995;SDS011;11664;49.774;8.650;2022-10-15T13:37:15;4.93;;;4.57;;
22995;SDS011;11664;49.774;8.650;2022-10-15T13:39:42;6.03;;;4.32;;
22995;SDS011;11664;49.774;8.650;2022-10-15T13:42:12;2.80;;;2.60;;
22995;SDS011;11664;49.774;8.650;2022-10-15T13:44:38;3.20;;;3.10;;
22995;SDS011;11664;49.774;8.650;2022-10-15T13:47:40;4.88;;;4.57;;
22995;SDS011;11664;49.774;8.650;2022-10-15T13:50:17;4.55;;;4.35;;
22995;SDS011;11664;49.774;8.650;2022-10-15T13:53:00;8.10;;;7.70;;
22995;SDS011;11664;49.774;8.650;2022-10-15T13:55:28;7.97;;;7.47;;
22995;SDS011;11664;49.774;8.650;2022-10-15T13:58:02;5.07;;;4.85;;
22995;SDS011;11664;49.774;8.650;2022-10-15T14:00:30;12.10;;;11.52;;
22995;SDS011;11664;49.774;8.650;2022-10-15T14:05:39;9.82;;;9.32;;
22995;SDS011;11664;49.774;8.650;2022-10-15T14:08:12;6.25;;;5.95;;
22995;SDS011;11664;49.774;8.650;2022-10-15T14:10:39;7.55;;;7.15;;
22995;SDS011;11664;49.774;8.650;2022-10-15T14:13:05;7.68;;;7.38;;
22995;SDS011;11664;49.774;8.650;2022-10-15T14:18:12;17.17;;;16.30;;
22995;SDS011;11664;49.774;8.650;2022-10-15T14:20:45;18.75;;;17.80;;
22995;SDS011;11664;49.774;8.650;2022-10-15T14:23:15;13.27;;;12.68;;
22995;SDS011;11664;49.774;8.650;2022-10-15T14:25:41;11.93;;;11.35;;
22995;SDS011;11664;49.774;8.650;2022-10-15T14:28:18;31.90;;;30.30;;
22995;SDS011;11664;49.774;8.650;2022-10-15T14:30:45;21.95;;;20.83;;
22995;SDS011;11664;49.774;8.650;2022-10-15T14:36:13;9.95;;;8.07;;
22995;SDS011;11664;49.774;8.650;2022-10-15T14:38:46;8.90;;;8.40;;
22995;SDS011;11664;49.774;8.650;2022-10-15T14:41:28;5.50;;;5.28;;
22995;SDS011;11664;49.774;8.650;2022-10-15T14:43:58;11.00;;;10.48;;
22995;SDS011;11664;49.774;8.650;2022-10-15T14:46:24;10.45;;;9.68;;
22995;SDS011;11664;49.774;8.650;2022-10-15T14:48:51;12.25;;;11.65;;
22995;SDS011;11664;49.774;8.650;2022-10-15T14:51:19;26.17;;;24.80;;
22995;SDS011;11664;49.774;8.650;2022-10-15T14:53:48;21.60;;;20.50;;
22995;SDS011;11664;49.774;8.650;2022-10-15T14:56:19;16.27;;;15.27;;
22995;SDS011;11664;49.774;8.650;2022-10-15T14:58:54;12.23;;;11.63;;
22995;SDS011;11664;49.774;8.650;2022-10-15T15:01:21;11.45;;;10.88;;
22995;SDS011;11664;49.774;8.650;2022-10-15T15:03:48;12.10;;;11.52;;
22995;SDS011;11664;49.774;8.650;2022-10-15T15:06:15;12.80;;;12.20;;
22995;SDS011;11664;49.774;8.650;2022-10-15T15:08:41;15.27;;;14.52;;
22995;SDS011;11664;49.774;8.650;2022-10-15T15:11:09;14.40;;;13.68;;
22995;SDS011;11664;49.774;8.650;2022-10-15T15:13:37;13.38;;;12.60;;
22995;SDS011;11664;49.774;8.650;2022-10-15T15:16:03;13.43;;;12.05;;
22995;SDS011;11664;49.774;8.650;2022-10-15T15:18:29;11.68;;;11.07;;
22995;SDS011;11664;49.774;8.650;2022-10-15T15:20:57;11.02;;;10.45;;
22995;SDS011;11664;49.774;8.650;2022-10-15T15:23:25;13.63;;;12.07;;
22995;SDS011;11664;49.774;8.650;2022-10-15T15:25:52;13.38;;;12.75;;
22995;SDS011;11664;49.774;8.650;2022-10-15T15:28:19;21.40;;;20.33;;
22995;SDS011;11664;49.774;8.650;2022-10-15T15:30:45;15.13;;;14.25;;
22995;SDS011;11664;49.774;8.650;2022-10-15T15:33:15;12.32;;;11.73;;
22995;SDS011;11664;49.774;8.650;2022-10-15T15:35:45;13.80;;;13.15;;
22995;SDS011;11664;49.774;8.650;2022-10-15T15:38:15;11.38;;;10.73;;
22995;SDS011;11664;49.774;8.650;2022-10-15T15:40:42;12.48;;;11.88;;
22995;SDS011;11664;49.774;8.650;2022-10-15T15:43:10;12.38;;;11.75;;
22995;SDS011;11664;49.774;8.650;2022-10-15T15:45:37;12.45;;;11.85;;
22995;SDS011;11664;49.774;8.650;2022-10-15T15:48:03;12.13;;;11.52;;
22995;SDS011;11664;49.774;8.650;2022-10-15T15:50:29;11.13;;;10.38;;
22995;SDS011;11664;49.774;8.650;2022-10-15T15:52:56;9.82;;;9.32;;
22995;SDS011;11664;49.774;8.650;2022-10-15T15:55:22;19.08;;;18.15;;
22995;SDS011;11664;49.774;8.650;2022-10-15T15:57:48;22.65;;;21.55;;
22995;SDS011;11664;49.774;8.650;2022-10-15T16:00:14;20.75;;;19.17;;
22995;SDS011;11664;49.774;8.650;2022-10-15T16:02:40;20.70;;;19.65;;
22995;SDS011;11664;49.774;8.650;2022-10-15T16:05:07;14.18;;;13.43;;
22995;SDS011;11664;49.774;8.650;2022-10-15T16:07:33;13.85;;;13.18;;
22995;SDS011;11664;49.774;8.650;2022-10-15T16:10:01;17.30;;;16.13;;
22995;SDS011;11664;49.774;8.650;2022-10-15T16:12:30;28.95;;;27.50;;